Shirebrook, United Kingdom
Current Conditions -  °F | °C
As of 5:50 PM on Sunday 21 Dec 2014 (Local Time) from EGCN Reporting Station
Broken Clouds Broken Clouds  
Wind Chill: 54°   Ceiling: 2000
Heat Index: 54°   Visibility: 6mi
Dew Point: 46°   Wind: 17mph
Humidity: 77%   Direction: 200°SSW
Pressure: 30"   Gusts: NA
Location:  53.2°N, 1.21°W
Report Text: EGCN 211750Z 20015KT 9999 BKN020 12/08 Q1016
Loading
Personal Weather Stations






























Interactive Weather Map New forecast layout! Learn more

10-Day Weather Forecast

Advertisements
Track Severe Weather on mobile